sensor_id;sensor_type;location;lat;lon;timestamp;P1;durP1;ratioP1;P2;durP2;ratioP2
8058;SDS011;4072;42.668;23.396;2023-07-08T00:00:20;12.67;;;11.47;;
8058;SDS011;4072;42.668;23.396;2023-07-08T00:02:51;12.87;;;11.53;;
8058;SDS011;4072;42.668;23.396;2023-07-08T00:05:21;14.17;;;12.77;;
8058;SDS011;4072;42.668;23.396;2023-07-08T00:07:53;14.00;;;12.73;;
8058;SDS011;4072;42.668;23.396;2023-07-08T00:10:21;13.00;;;11.63;;
8058;SDS011;4072;42.668;23.396;2023-07-08T00:12:53;15.60;;;12.70;;
8058;SDS011;4072;42.668;23.396;2023-07-08T00:15:24;14.40;;;12.97;;
8058;SDS011;4072;42.668;23.396;2023-07-08T00:17:55;14.93;;;13.50;;
8058;SDS011;4072;42.668;23.396;2023-07-08T00:20:26;13.83;;;12.60;;
8058;SDS011;4072;42.668;23.396;2023-07-08T00:22:59;14.00;;;12.60;;
8058;SDS011;4072;42.668;23.396;2023-07-08T00:25:28;15.07;;;13.27;;
8058;SDS011;4072;42.668;23.396;2023-07-08T00:27:58;15.10;;;13.70;;
8058;SDS011;4072;42.668;23.396;2023-07-08T00:30:27;15.40;;;13.10;;
8058;SDS011;4072;42.668;23.396;2023-07-08T00:32:58;13.83;;;12.43;;
8058;SDS011;4072;42.668;23.396;2023-07-08T00:35:28;15.57;;;13.60;;
8058;SDS011;4072;42.668;23.396;2023-07-08T00:38:00;14.07;;;12.57;;
8058;SDS011;4072;42.668;23.396;2023-07-08T00:40:30;14.00;;;12.57;;
8058;SDS011;4072;42.668;23.396;2023-07-08T00:43:00;14.27;;;12.83;;
8058;SDS011;4072;42.668;23.396;2023-07-08T00:45:34;13.63;;;12.23;;
8058;SDS011;4072;42.668;23.396;2023-07-08T00:48:22;13.00;;;11.83;;
8058;SDS011;4072;42.668;23.396;2023-07-08T00:50:53;13.70;;;12.23;;
8058;SDS011;4072;42.668;23.396;2023-07-08T00:53:23;15.20;;;13.77;;
8058;SDS011;4072;42.668;23.396;2023-07-08T00:55:53;14.73;;;13.23;;
8058;SDS011;4072;42.668;23.396;2023-07-08T00:58:27;14.13;;;12.73;;
8058;SDS011;4072;42.668;23.396;2023-07-08T01:01:00;15.13;;;12.17;;
8058;SDS011;4072;42.668;23.396;2023-07-08T01:03:32;13.97;;;12.67;;
8058;SDS011;4072;42.668;23.396;2023-07-08T01:06:05;13.33;;;12.03;;
8058;SDS011;4072;42.668;23.396;2023-07-08T01:08:33;14.60;;;13.10;;
8058;SDS011;4072;42.668;23.396;2023-07-08T01:11:02;13.77;;;12.50;;
8058;SDS011;4072;42.668;23.396;2023-07-08T01:13:35;13.80;;;12.20;;
8058;SDS011;4072;42.668;23.396;2023-07-08T01:16:07;12.67;;;11.60;;
8058;SDS011;4072;42.668;23.396;2023-07-08T01:18:38;12.93;;;11.63;;
8058;SDS011;4072;42.668;23.396;2023-07-08T01:24:00;12.70;;;11.53;;
8058;SDS011;4072;42.668;23.396;2023-07-08T01:26:30;12.43;;;11.23;;
8058;SDS011;4072;42.668;23.396;2023-07-08T01:29:00;12.47;;;11.17;;
8058;SDS011;4072;42.668;23.396;2023-07-08T01:31:30;12.40;;;11.30;;
8058;SDS011;4072;42.668;23.396;2023-07-08T01:33:58;12.40;;;11.30;;
8058;SDS011;4072;42.668;23.396;2023-07-08T01:36:28;11.43;;;10.37;;
8058;SDS011;4072;42.668;23.396;2023-07-08T01:39:02;12.37;;;11.10;;
8058;SDS011;4072;42.668;23.396;2023-07-08T01:41:30;13.47;;;11.47;;
8058;SDS011;4072;42.668;23.396;2023-07-08T01:43:58;11.80;;;10.67;;
8058;SDS011;4072;42.668;23.396;2023-07-08T01:46:27;11.83;;;10.67;;
8058;SDS011;4072;42.668;23.396;2023-07-08T01:48:58;12.70;;;11.50;;
8058;SDS011;4072;42.668;23.396;2023-07-08T01:51:28;13.60;;;12.20;;
8058;SDS011;4072;42.668;23.396;2023-07-08T01:53:57;12.43;;;11.23;;
8058;SDS011;4072;42.668;23.396;2023-07-08T01:56:26;12.40;;;11.13;;
8058;SDS011;4072;42.668;23.396;2023-07-08T01:58:55;14.37;;;11.00;;
8058;SDS011;4072;42.668;23.396;2023-07-08T02:01:23;12.90;;;11.70;;
8058;SDS011;4072;42.668;23.396;2023-07-08T02:03:51;11.27;;;10.20;;
8058;SDS011;4072;42.668;23.396;2023-07-08T02:06:19;14.17;;;12.77;;
8058;SDS011;4072;42.668;23.396;2023-07-08T02:08:48;12.97;;;11.50;;
8058;SDS011;4072;42.668;23.396;2023-07-08T02:11:16;12.57;;;11.30;;
8058;SDS011;4072;42.668;23.396;2023-07-08T02:13:46;12.60;;;11.43;;
8058;SDS011;4072;42.668;23.396;2023-07-08T02:16:15;11.97;;;10.97;;
8058;SDS011;4072;42.668;23.396;2023-07-08T02:18:43;11.50;;;10.40;;
8058;SDS011;4072;42.668;23.396;2023-07-08T02:21:12;11.93;;;10.87;;
8058;SDS011;4072;42.668;23.396;2023-07-08T02:23:40;11.07;;;9.97;;
8058;SDS011;4072;42.668;23.396;2023-07-08T02:26:08;11.93;;;10.70;;
8058;SDS011;4072;42.668;23.396;2023-07-08T02:28:36;11.67;;;10.43;;
8058;SDS011;4072;42.668;23.396;2023-07-08T02:31:06;11.63;;;10.53;;
8058;SDS011;4072;42.668;23.396;2023-07-08T02:33:34;12.27;;;11.10;;
8058;SDS011;4072;42.668;23.396;2023-07-08T02:36:03;11.33;;;9.97;;
8058;SDS011;4072;42.668;23.396;2023-07-08T02:38:32;12.80;;;10.50;;
8058;SDS011;4072;42.668;23.396;2023-07-08T02:41:01;11.13;;;10.13;;
8058;SDS011;4072;42.668;23.396;2023-07-08T02:43:29;12.03;;;10.80;;
8058;SDS011;4072;42.668;23.396;2023-07-08T02:45:57;11.20;;;10.00;;
8058;SDS011;4072;42.668;23.396;2023-07-08T02:48:27;11.07;;;9.97;;
8058;SDS011;4072;42.668;23.396;2023-07-08T02:50:58;11.70;;;10.63;;
8058;SDS011;4072;42.668;23.396;2023-07-08T02:53:27;10.90;;;9.80;;
8058;SDS011;4072;42.668;23.396;2023-07-08T02:55:55;19.20;;;10.93;;
8058;SDS011;4072;42.668;23.396;2023-07-08T02:58:23;10.73;;;9.73;;
8058;SDS011;4072;42.668;23.396;2023-07-08T03:00:52;11.47;;;10.43;;
8058;SDS011;4072;42.668;23.396;2023-07-08T03:03:21;11.60;;;10.37;;
8058;SDS011;4072;42.668;23.396;2023-07-08T03:05:55;11.30;;;10.20;;
8058;SDS011;4072;42.668;23.396;2023-07-08T03:08:25;11.33;;;10.33;;
8058;SDS011;4072;42.668;23.396;2023-07-08T03:10:55;12.17;;;10.07;;
8058;SDS011;4072;42.668;23.396;2023-07-08T03:13:25;11.17;;;10.10;;
8058;SDS011;4072;42.668;23.396;2023-07-08T03:15:54;12.80;;;10.43;;
8058;SDS011;4072;42.668;23.396;2023-07-08T03:18:22;11.17;;;9.83;;
8058;SDS011;4072;42.668;23.396;2023-07-08T03:20:54;11.00;;;9.90;;
8058;SDS011;4072;42.668;23.396;2023-07-08T03:23:24;11.53;;;10.53;;
8058;SDS011;4072;42.668;23.396;2023-07-08T03:25:53;11.87;;;10.67;;
8058;SDS011;4072;42.668;23.396;2023-07-08T03:28:21;12.03;;;10.30;;
8058;SDS011;4072;42.668;23.396;2023-07-08T03:30:51;12.00;;;10.70;;
8058;SDS011;4072;42.668;23.396;2023-07-08T03:33:20;11.37;;;9.23;;
8058;SDS011;4072;42.668;23.396;2023-07-08T03:35:48;10.80;;;9.70;;
8058;SDS011;4072;42.668;23.396;2023-07-08T03:38:18;10.27;;;9.30;;
8058;SDS011;4072;42.668;23.396;2023-07-08T03:40:46;11.77;;;9.83;;
8058;SDS011;4072;42.668;23.396;2023-07-08T03:43:15;11.27;;;9.37;;
8058;SDS011;4072;42.668;23.396;2023-07-08T03:45:43;10.93;;;8.90;;
8058;SDS011;4072;42.668;23.396;2023-07-08T03:48:12;10.83;;;9.77;;
8058;SDS011;4072;42.668;23.396;2023-07-08T03:50:40;8.57;;;7.80;;
8058;SDS011;4072;42.668;23.396;2023-07-08T03:53:08;9.50;;;8.43;;
8058;SDS011;4072;42.668;23.396;2023-07-08T03:55:38;9.43;;;8.53;;
8058;SDS011;4072;42.668;23.396;2023-07-08T03:58:07;8.87;;;8.07;;
8058;SDS011;4072;42.668;23.396;2023-07-08T04:00:35;8.80;;;8.00;;
8058;SDS011;4072;42.668;23.396;2023-07-08T04:03:04;9.67;;;8.80;;
8058;SDS011;4072;42.668;23.396;2023-07-08T04:05:32;8.63;;;7.83;;
8058;SDS011;4072;42.668;23.396;2023-07-08T04:08:00;9.77;;;8.80;;
8058;SDS011;4072;42.668;23.396;2023-07-08T04:10:28;9.00;;;7.80;;
8058;SDS011;4072;42.668;23.396;2023-07-08T04:12:58;9.47;;;8.57;;
8058;SDS011;4072;42.668;23.396;2023-07-08T04:15:26;8.57;;;7.70;;
8058;SDS011;4072;42.668;23.396;2023-07-08T04:17:55;8.40;;;7.60;;
8058;SDS011;4072;42.668;23.396;2023-07-08T04:20:23;8.87;;;8.07;;
8058;SDS011;4072;42.668;23.396;2023-07-08T04:22:52;8.43;;;7.63;;
8058;SDS011;4072;42.668;23.396;2023-07-08T04:25:20;8.67;;;7.83;;
8058;SDS011;4072;42.668;23.396;2023-07-08T04:27:54;10.77;;;8.63;;
8058;SDS011;4072;42.668;23.396;2023-07-08T04:30:25;7.93;;;7.17;;
8058;SDS011;4072;42.668;23.396;2023-07-08T04:32:53;8.57;;;7.67;;
8058;SDS011;4072;42.668;23.396;2023-07-08T04:35:22;9.83;;;7.60;;
8058;SDS011;4072;42.668;23.396;2023-07-08T04:37:50;9.03;;;8.17;;
8058;SDS011;4072;42.668;23.396;2023-07-08T04:40:19;9.18;;;7.38;;
8058;SDS011;4072;42.668;23.396;2023-07-08T04:42:48;8.17;;;7.30;;
8058;SDS011;4072;42.668;23.396;2023-07-08T04:45:18;9.02;;;7.20;;
8058;SDS011;4072;42.668;23.396;2023-07-08T04:47:49;7.50;;;6.80;;
8058;SDS011;4072;42.668;23.396;2023-07-08T04:50:19;7.90;;;7.18;;
8058;SDS011;4072;42.668;23.396;2023-07-08T04:52:48;8.50;;;7.15;;
8058;SDS011;4072;42.668;23.396;2023-07-08T04:55:16;8.68;;;7.88;;
8058;SDS011;4072;42.668;23.396;2023-07-08T04:57:46;10.85;;;7.57;;
8058;SDS011;4072;42.668;23.396;2023-07-08T05:00:15;8.40;;;7.50;;
8058;SDS011;4072;42.668;23.396;2023-07-08T05:02:46;8.03;;;7.30;;
8058;SDS011;4072;42.668;23.396;2023-07-08T05:05:16;8.95;;;8.15;;
8058;SDS011;4072;42.668;23.396;2023-07-08T05:07:44;8.55;;;7.72;;
8058;SDS011;4072;42.668;23.396;2023-07-08T05:10:12;8.87;;;8.07;;
8058;SDS011;4072;42.668;23.396;2023-07-08T05:12:41;8.23;;;7.33;;
8058;SDS011;4072;42.668;23.396;2023-07-08T05:15:09;7.78;;;7.07;;
8058;SDS011;4072;42.668;23.396;2023-07-08T05:17:38;10.27;;;7.28;;
8058;SDS011;4072;42.668;23.396;2023-07-08T05:20:08;7.78;;;6.97;;
8058;SDS011;4072;42.668;23.396;2023-07-08T05:22:40;8.70;;;6.82;;
8058;SDS011;4072;42.668;23.396;2023-07-08T05:25:10;7.38;;;6.75;;
8058;SDS011;4072;42.668;23.396;2023-07-08T05:27:39;7.53;;;6.72;;
8058;SDS011;4072;42.668;23.396;2023-07-08T05:30:08;7.45;;;6.75;;
8058;SDS011;4072;42.668;23.396;2023-07-08T05:32:40;7.32;;;6.60;;
8058;SDS011;4072;42.668;23.396;2023-07-08T05:35:09;7.75;;;7.05;;
8058;SDS011;4072;42.668;23.396;2023-07-08T05:37:37;8.88;;;6.70;;
8058;SDS011;4072;42.668;23.396;2023-07-08T05:40:09;8.40;;;6.70;;
8058;SDS011;4072;42.668;23.396;2023-07-08T05:42:37;8.05;;;7.35;;
8058;SDS011;4072;42.668;23.396;2023-07-08T05:45:05;7.03;;;6.32;;
8058;SDS011;4072;42.668;23.396;2023-07-08T05:47:36;7.30;;;6.38;;
8058;SDS011;4072;42.668;23.396;2023-07-08T05:50:05;8.13;;;6.55;;
8058;SDS011;4072;42.668;23.396;2023-07-08T05:52:34;10.15;;;6.05;;
8058;SDS011;4072;42.668;23.396;2023-07-08T05:55:03;10.00;;;7.00;;
8058;SDS011;4072;42.668;23.396;2023-07-08T05:57:34;7.18;;;6.13;;
8058;SDS011;4072;42.668;23.396;2023-07-08T06:00:02;7.45;;;6.85;;
8058;SDS011;4072;42.668;23.396;2023-07-08T06:02:31;9.80;;;6.70;;
8058;SDS011;4072;42.668;23.396;2023-07-08T06:05:00;7.50;;;6.53;;
8058;SDS011;4072;42.668;23.396;2023-07-08T06:07:28;12.10;;;8.77;;
8058;SDS011;4072;42.668;23.396;2023-07-08T06:09:56;8.00;;;7.20;;
8058;SDS011;4072;42.668;23.396;2023-07-08T06:12:25;7.90;;;7.20;;
8058;SDS011;4072;42.668;23.396;2023-07-08T06:14:56;7.82;;;7.10;;
8058;SDS011;4072;42.668;23.396;2023-07-08T06:17:24;8.48;;;7.05;;
8058;SDS011;4072;42.668;23.396;2023-07-08T06:19:53;9.98;;;7.32;;
8058;SDS011;4072;42.668;23.396;2023-07-08T06:22:21;9.50;;;7.00;;
8058;SDS011;4072;42.668;23.396;2023-07-08T06:25:10;8.15;;;7.35;;
8058;SDS011;4072;42.668;23.396;2023-07-08T06:27:39;7.97;;;7.22;;
8058;SDS011;4072;42.668;23.396;2023-07-08T06:30:09;8.68;;;7.30;;
8058;SDS011;4072;42.668;23.396;2023-07-08T06:32:37;7.78;;;7.07;;
8058;SDS011;4072;42.668;23.396;2023-07-08T06:35:06;8.38;;;7.60;;
8058;SDS011;4072;42.668;23.396;2023-07-08T06:37:35;8.80;;;6.85;;
8058;SDS011;4072;42.668;23.396;2023-07-08T06:40:03;7.18;;;6.47;;
8058;SDS011;4072;42.668;23.396;2023-07-08T06:42:33;7.25;;;6.30;;
8058;SDS011;4072;42.668;23.396;2023-07-08T06:45:01;6.93;;;6.22;;
8058;SDS011;4072;42.668;23.396;2023-07-08T06:47:34;6.95;;;6.28;;
8058;SDS011;4072;42.668;23.396;2023-07-08T06:50:02;7.13;;;6.47;;
8058;SDS011;4072;42.668;23.396;2023-07-08T06:52:30;8.77;;;6.30;;
8058;SDS011;4072;42.668;23.396;2023-07-08T06:55:00;6.55;;;5.95;;
8058;SDS011;4072;42.668;23.396;2023-07-08T06:57:30;8.30;;;6.57;;
8058;SDS011;4072;42.668;23.396;2023-07-08T06:59:59;7.95;;;5.60;;
8058;SDS011;4072;42.668;23.396;2023-07-08T07:02:27;6.85;;;6.13;;
8058;SDS011;4072;42.668;23.396;2023-07-08T07:04:58;8.82;;;5.75;;
8058;SDS011;4072;42.668;23.396;2023-07-08T07:07:27;7.22;;;6.20;;
8058;SDS011;4072;42.668;23.396;2023-07-08T07:09:55;6.28;;;5.68;;
8058;SDS011;4072;42.668;23.396;2023-07-08T07:12:23;6.50;;;5.82;;
8058;SDS011;4072;42.668;23.396;2023-07-08T07:14:52;7.68;;;5.20;;
8058;SDS011;4072;42.668;23.396;2023-07-08T07:17:21;6.47;;;5.65;;
8058;SDS011;4072;42.668;23.396;2023-07-08T07:19:52;6.72;;;6.05;;
8058;SDS011;4072;42.668;23.396;2023-07-08T07:22:22;6.20;;;5.70;;
8058;SDS011;4072;42.668;23.396;2023-07-08T07:24:52;5.75;;;5.15;;
8058;SDS011;4072;42.668;23.396;2023-07-08T07:27:20;6.03;;;5.43;;
8058;SDS011;4072;42.668;23.396;2023-07-08T07:29:49;8.10;;;6.47;;
8058;SDS011;4072;42.668;23.396;2023-07-08T07:32:19;6.35;;;5.78;;
8058;SDS011;4072;42.668;23.396;2023-07-08T07:34:51;7.00;;;6.40;;
8058;SDS011;4072;42.668;23.396;2023-07-08T07:37:21;7.20;;;6.60;;
8058;SDS011;4072;42.668;23.396;2023-07-08T07:39:50;6.70;;;6.00;;
8058;SDS011;4072;42.668;23.396;2023-07-08T07:42:18;6.07;;;5.55;;
8058;SDS011;4072;42.668;23.396;2023-07-08T07:44:47;9.55;;;6.10;;
8058;SDS011;4072;42.668;23.396;2023-07-08T07:47:15;7.38;;;6.68;;
8058;SDS011;4072;42.668;23.396;2023-07-08T07:49:44;8.80;;;6.55;;
8058;SDS011;4072;42.668;23.396;2023-07-08T07:52:12;6.10;;;5.53;;
8058;SDS011;4072;42.668;23.396;2023-07-08T07:54:42;7.20;;;6.60;;
8058;SDS011;4072;42.668;23.396;2023-07-08T07:57:10;8.15;;;6.80;;
8058;SDS011;4072;42.668;23.396;2023-07-08T07:59:39;6.40;;;5.68;;
8058;SDS011;4072;42.668;23.396;2023-07-08T08:02:07;6.72;;;6.13;;
8058;SDS011;4072;42.668;23.396;2023-07-08T08:04:36;6.63;;;5.82;;
8058;SDS011;4072;42.668;23.396;2023-07-08T08:07:04;6.32;;;5.38;;
8058;SDS011;4072;42.668;23.396;2023-07-08T08:09:33;6.65;;;6.07;;
8058;SDS011;4072;42.668;23.396;2023-07-08T08:12:03;12.43;;;5.47;;
8058;SDS011;4072;42.668;23.396;2023-07-08T08:14:32;6.38;;;5.78;;
8058;SDS011;4072;42.668;23.396;2023-07-08T08:17:00;7.47;;;6.82;;
8058;SDS011;4072;42.668;23.396;2023-07-08T08:19:29;6.80;;;6.20;;
8058;SDS011;4072;42.668;23.396;2023-07-08T08:21:57;6.53;;;5.88;;
8058;SDS011;4072;42.668;23.396;2023-07-08T08:24:26;7.18;;;6.47;;
8058;SDS011;4072;42.668;23.396;2023-07-08T08:26:55;6.70;;;5.97;;
8058;SDS011;4072;42.668;23.396;2023-07-08T08:29:25;6.75;;;6.15;;
8058;SDS011;4072;42.668;23.396;2023-07-08T08:31:53;6.82;;;6.22;;
8058;SDS011;4072;42.668;23.396;2023-07-08T08:34:22;7.50;;;6.90;;
8058;SDS011;4072;42.668;23.396;2023-07-08T08:36:50;7.13;;;6.53;;
8058;SDS011;4072;42.668;23.396;2023-07-08T08:39:22;6.72;;;5.85;;
8058;SDS011;4072;42.668;23.396;2023-07-08T08:41:51;6.78;;;6.05;;
8058;SDS011;4072;42.668;23.396;2023-07-08T08:44:22;7.10;;;6.45;;
8058;SDS011;4072;42.668;23.396;2023-07-08T08:46:57;10.55;;;8.90;;
8058;SDS011;4072;42.668;23.396;2023-07-08T08:49:35;7.50;;;6.90;;
8058;SDS011;4072;42.668;23.396;2023-07-08T08:52:07;9.55;;;6.47;;
8058;SDS011;4072;42.668;23.396;2023-07-08T08:54:35;7.45;;;6.28;;
8058;SDS011;4072;42.668;23.396;2023-07-08T08:57:06;6.82;;;6.22;;
8058;SDS011;4072;42.668;23.396;2023-07-08T08:59:44;7.93;;;7.07;;
8058;SDS011;4072;42.668;23.396;2023-07-08T09:02:21;8.15;;;7.35;;
8058;SDS011;4072;42.668;23.396;2023-07-08T09:04:55;8.25;;;6.82;;
8058;SDS011;4072;42.668;23.396;2023-07-08T09:07:29;8.73;;;6.72;;
8058;SDS011;4072;42.668;23.396;2023-07-08T09:10:01;6.97;;;6.38;;
8058;SDS011;4072;42.668;23.396;2023-07-08T09:12:33;9.80;;;6.93;;
8058;SDS011;4072;42.668;23.396;2023-07-08T09:15:08;7.32;;;6.72;;
8058;SDS011;4072;42.668;23.396;2023-07-08T09:17:40;7.53;;;6.82;;
8058;SDS011;4072;42.668;23.396;2023-07-08T09:20:12;6.45;;;5.68;;
8058;SDS011;4072;42.668;23.396;2023-07-08T09:22:50;7.18;;;6.25;;
8058;SDS011;4072;42.668;23.396;2023-07-08T09:25:26;8.15;;;7.35;;
8058;SDS011;4072;42.668;23.396;2023-07-08T09:28:00;6.65;;;6.05;;
8058;SDS011;4072;42.668;23.396;2023-07-08T09:30:30;7.72;;;6.10;;
8058;SDS011;4072;42.668;23.396;2023-07-08T09:33:01;8.18;;;7.22;;
8058;SDS011;4072;42.668;23.396;2023-07-08T09:35:37;6.32;;;5.82;;
8058;SDS011;4072;42.668;23.396;2023-07-08T09:38:07;5.95;;;5.40;;
8058;SDS011;4072;42.668;23.396;2023-07-08T09:40:37;8.15;;;6.60;;
8058;SDS011;4072;42.668;23.396;2023-07-08T09:43:11;6.40;;;5.80;;
8058;SDS011;4072;42.668;23.396;2023-07-08T09:45:47;6.78;;;5.30;;
8058;SDS011;4072;42.668;23.396;2023-07-08T09:48:17;6.25;;;5.75;;
8058;SDS011;4072;42.668;23.396;2023-07-08T09:50:49;5.60;;;4.97;;
8058;SDS011;4072;42.668;23.396;2023-07-08T09:53:20;6.13;;;5.50;;
8058;SDS011;4072;42.668;23.396;2023-07-08T09:55:49;6.03;;;5.43;;
8058;SDS011;4072;42.668;23.396;2023-07-08T09:58:19;9.75;;;5.15;;
8058;SDS011;4072;42.668;23.396;2023-07-08T10:00:54;6.03;;;5.43;;
8058;SDS011;4072;42.668;23.396;2023-07-08T10:03:26;5.90;;;5.40;;
8058;SDS011;4072;42.668;23.396;2023-07-08T10:05:57;5.53;;;5.03;;
8058;SDS011;4072;42.668;23.396;2023-07-08T10:08:34;6.25;;;5.50;;
8058;SDS011;4072;42.668;23.396;2023-07-08T10:11:10;6.07;;;5.28;;
8058;SDS011;4072;42.668;23.396;2023-07-08T10:13:47;5.45;;;5.03;;
8058;SDS011;4072;42.668;23.396;2023-07-08T10:16:39;6.30;;;5.65;;
8058;SDS011;4072;42.668;23.396;2023-07-08T10:19:09;6.70;;;6.10;;
8058;SDS011;4072;42.668;23.396;2023-07-08T10:21:44;6.15;;;5.55;;
8058;SDS011;4072;42.668;23.396;2023-07-08T10:24:27;5.72;;;5.22;;
8058;SDS011;4072;42.668;23.396;2023-07-08T10:27:07;6.03;;;5.43;;
8058;SDS011;4072;42.668;23.396;2023-07-08T10:29:43;12.23;;;5.10;;
8058;SDS011;4072;42.668;23.396;2023-07-08T10:32:24;5.63;;;5.10;;
8058;SDS011;4072;42.668;23.396;2023-07-08T10:35:04;7.55;;;6.22;;
8058;SDS011;4072;42.668;23.396;2023-07-08T10:37:43;7.25;;;6.55;;
8058;SDS011;4072;42.668;23.396;2023-07-08T10:40:31;5.15;;;4.63;;
8058;SDS011;4072;42.668;23.396;2023-07-08T10:43:10;8.90;;;7.80;;
8058;SDS011;4072;42.668;23.396;2023-07-08T10:45:54;7.20;;;5.97;;
8058;SDS011;4072;42.668;23.396;2023-07-08T10:48:42;5.30;;;4.88;;
8058;SDS011;4072;42.668;23.396;2023-07-08T10:51:21;6.97;;;4.97;;
8058;SDS011;4072;42.668;23.396;2023-07-08T10:54:02;6.20;;;5.60;;
8058;SDS011;4072;42.668;23.396;2023-07-08T10:56:44;4.20;;;3.90;;
8058;SDS011;4072;42.668;23.396;2023-07-08T10:59:24;4.35;;;4.05;;
8058;SDS011;4072;42.668;23.396;2023-07-08T11:02:13;4.72;;;4.32;;
8058;SDS011;4072;42.668;23.396;2023-07-08T11:04:56;4.55;;;4.20;;
8058;SDS011;4072;42.668;23.396;2023-07-08T11:07:36;3.75;;;3.45;;
8058;SDS011;4072;42.668;23.396;2023-07-08T11:10:12;4.93;;;4.53;;
8058;SDS011;4072;42.668;23.396;2023-07-08T11:12:46;5.18;;;4.47;;
8058;SDS011;4072;42.668;23.396;2023-07-08T11:15:17;5.53;;;5.03;;
8058;SDS011;4072;42.668;23.396;2023-07-08T11:17:53;5.57;;;4.70;;
8058;SDS011;4072;42.668;23.396;2023-07-08T11:20:30;4.97;;;4.57;;
8058;SDS011;4072;42.668;23.396;2023-07-08T11:23:04;7.43;;;5.22;;
8058;SDS011;4072;42.668;23.396;2023-07-08T11:25:40;6.10;;;5.50;;
8058;SDS011;4072;42.668;23.396;2023-07-08T11:28:12;5.65;;;4.80;;
8058;SDS011;4072;42.668;23.396;2023-07-08T11:30:44;6.88;;;5.93;;
8058;SDS011;4072;42.668;23.396;2023-07-08T11:33:15;6.22;;;5.63;;
8058;SDS011;4072;42.668;23.396;2023-07-08T11:35:48;7.75;;;6.28;;
8058;SDS011;4072;42.668;23.396;2023-07-08T11:38:19;7.07;;;6.32;;
8058;SDS011;4072;42.668;23.396;2023-07-08T11:40:49;4.45;;;4.07;;
8058;SDS011;4072;42.668;23.396;2023-07-08T11:43:21;5.13;;;4.70;;
8058;SDS011;4072;42.668;23.396;2023-07-08T11:45:53;6.70;;;5.38;;
8058;SDS011;4072;42.668;23.396;2023-07-08T11:48:24;6.03;;;5.53;;
8058;SDS011;4072;42.668;23.396;2023-07-08T11:50:56;6.30;;;5.80;;
8058;SDS011;4072;42.668;23.396;2023-07-08T11:53:36;4.35;;;4.05;;
8058;SDS011;4072;42.668;23.396;2023-07-08T11:56:18;5.53;;;5.03;;
8058;SDS011;4072;42.668;23.396;2023-07-08T12:01:46;4.75;;;4.15;;
8058;SDS011;4072;42.668;23.396;2023-07-08T12:04:26;5.10;;;4.18;;
8058;SDS011;4072;42.668;23.396;2023-07-08T12:07:06;5.28;;;4.07;;
8058;SDS011;4072;42.668;23.396;2023-07-08T12:09:43;4.25;;;3.95;;
8058;SDS011;4072;42.668;23.396;2023-07-08T12:12:17;4.55;;;3.97;;
8058;SDS011;4072;42.668;23.396;2023-07-08T12:14:51;5.90;;;4.35;;
8058;SDS011;4072;42.668;23.396;2023-07-08T12:17:26;4.05;;;3.65;;
8058;SDS011;4072;42.668;23.396;2023-07-08T12:19:55;4.75;;;4.15;;
8058;SDS011;4072;42.668;23.396;2023-07-08T12:22:31;4.50;;;4.10;;
8058;SDS011;4072;42.668;23.396;2023-07-08T12:25:00;4.18;;;3.78;;
8058;SDS011;4072;42.668;23.396;2023-07-08T12:27:31;4.20;;;3.80;;
8058;SDS011;4072;42.668;23.396;2023-07-08T12:30:00;4.15;;;3.75;;
8058;SDS011;4072;42.668;23.396;2023-07-08T12:32:29;4.40;;;4.00;;
8058;SDS011;4072;42.668;23.396;2023-07-08T12:34:58;5.07;;;4.40;;
8058;SDS011;4072;42.668;23.396;2023-07-08T12:37:26;5.05;;;4.20;;
8058;SDS011;4072;42.668;23.396;2023-07-08T12:39:56;5.25;;;4.75;;
8058;SDS011;4072;42.668;23.396;2023-07-08T12:42:30;3.97;;;3.55;;
8058;SDS011;4072;42.668;23.396;2023-07-08T12:44:59;4.15;;;3.75;;
8058;SDS011;4072;42.668;23.396;2023-07-08T12:47:28;4.70;;;3.85;;
8058;SDS011;4072;42.668;23.396;2023-07-08T12:49:56;5.97;;;3.63;;
8058;SDS011;4072;42.668;23.396;2023-07-08T12:52:24;3.08;;;2.88;;
8058;SDS011;4072;42.668;23.396;2023-07-08T12:54:53;4.15;;;3.70;;
8058;SDS011;4072;42.668;23.396;2023-07-08T12:57:22;4.03;;;3.60;;
8058;SDS011;4072;42.668;23.396;2023-07-08T12:59:51;4.32;;;3.92;;
8058;SDS011;4072;42.668;23.396;2023-07-08T13:02:21;5.10;;;3.83;;
8058;SDS011;4072;42.668;23.396;2023-07-08T13:04:56;7.45;;;3.65;;
8058;SDS011;4072;42.668;23.396;2023-07-08T13:07:32;3.50;;;3.10;;
8058;SDS011;4072;42.668;23.396;2023-07-08T13:10:03;3.60;;;3.30;;
8058;SDS011;4072;42.668;23.396;2023-07-08T13:12:35;6.38;;;3.42;;
8058;SDS011;4072;42.668;23.396;2023-07-08T13:15:08;4.18;;;3.58;;
8058;SDS011;4072;42.668;23.396;2023-07-08T13:17:43;3.92;;;3.53;;
8058;SDS011;4072;42.668;23.396;2023-07-08T13:20:13;3.55;;;3.20;;
8058;SDS011;4072;42.668;23.396;2023-07-08T13:22:42;3.97;;;3.08;;
8058;SDS011;4072;42.668;23.396;2023-07-08T13:25:27;3.80;;;3.50;;
8058;SDS011;4072;42.668;23.396;2023-07-08T13:27:59;3.65;;;3.35;;
8058;SDS011;4072;42.668;23.396;2023-07-08T13:30:29;5.85;;;3.75;;
8058;SDS011;4072;42.668;23.396;2023-07-08T13:32:59;3.35;;;3.08;;
8058;SDS011;4072;42.668;23.396;2023-07-08T13:35:33;2.90;;;2.50;;
8058;SDS011;4072;42.668;23.396;2023-07-08T13:38:04;3.90;;;3.13;;
8058;SDS011;4072;42.668;23.396;2023-07-08T13:40:33;3.00;;;2.80;;
8058;SDS011;4072;42.668;23.396;2023-07-08T13:43:06;3.97;;;3.67;;
8058;SDS011;4072;42.668;23.396;2023-07-08T13:45:34;4.65;;;2.97;;
8058;SDS011;4072;42.668;23.396;2023-07-08T13:48:10;3.03;;;2.80;;
8058;SDS011;4072;42.668;23.396;2023-07-08T13:50:44;6.93;;;3.17;;
8058;SDS011;4072;42.668;23.396;2023-07-08T13:53:16;6.35;;;3.30;;
8058;SDS011;4072;42.668;23.396;2023-07-08T13:55:45;4.72;;;3.35;;
8058;SDS011;4072;42.668;23.396;2023-07-08T13:58:17;4.07;;;3.10;;
8058;SDS011;4072;42.668;23.396;2023-07-08T14:00:45;2.83;;;2.60;;
8058;SDS011;4072;42.668;23.396;2023-07-08T14:03:14;2.97;;;2.72;;
8058;SDS011;4072;42.668;23.396;2023-07-08T14:05:45;4.35;;;2.95;;
8058;SDS011;4072;42.668;23.396;2023-07-08T14:08:14;2.92;;;2.72;;
8058;SDS011;4072;42.668;23.396;2023-07-08T14:10:44;3.85;;;3.40;;
8058;SDS011;4072;42.668;23.396;2023-07-08T14:13:12;4.63;;;3.15;;
8058;SDS011;4072;42.668;23.396;2023-07-08T14:15:44;3.50;;;3.17;;
8058;SDS011;4072;42.668;23.396;2023-07-08T14:18:13;3.63;;;3.17;;
8058;SDS011;4072;42.668;23.396;2023-07-08T14:20:41;3.47;;;2.70;;
8058;SDS011;4072;42.668;23.396;2023-07-08T14:23:10;3.70;;;3.10;;
8058;SDS011;4072;42.668;23.396;2023-07-08T14:25:39;3.58;;;3.28;;
8058;SDS011;4072;42.668;23.396;2023-07-08T14:28:08;3.85;;;3.53;;
8058;SDS011;4072;42.668;23.396;2023-07-08T14:30:38;4.60;;;3.20;;
8058;SDS011;4072;42.668;23.396;2023-07-08T14:33:13;5.85;;;3.42;;
8058;SDS011;4072;42.668;23.396;2023-07-08T14:35:42;3.85;;;3.33;;
8058;SDS011;4072;42.668;23.396;2023-07-08T14:38:12;3.22;;;2.92;;
8058;SDS011;4072;42.668;23.396;2023-07-08T14:40:41;4.10;;;3.35;;
8058;SDS011;4072;42.668;23.396;2023-07-08T14:43:12;3.20;;;2.90;;
8058;SDS011;4072;42.668;23.396;2023-07-08T14:45:49;3.90;;;3.05;;
8058;SDS011;4072;42.668;23.396;2023-07-08T14:48:22;3.53;;;3.15;;
8058;SDS011;4072;42.668;23.396;2023-07-08T14:50:52;3.35;;;3.05;;
8058;SDS011;4072;42.668;23.396;2023-07-08T14:53:21;3.22;;;2.92;;
8058;SDS011;4072;42.668;23.396;2023-07-08T14:55:50;8.27;;;3.30;;
8058;SDS011;4072;42.668;23.396;2023-07-08T14:58:22;3.42;;;3.13;;
8058;SDS011;4072;42.668;23.396;2023-07-08T15:00:53;3.42;;;3.13;;
8058;SDS011;4072;42.668;23.396;2023-07-08T15:03:25;3.40;;;3.10;;
8058;SDS011;4072;42.668;23.396;2023-07-08T15:05:54;4.15;;;3.13;;
8058;SDS011;4072;42.668;23.396;2023-07-08T15:08:22;4.22;;;3.83;;
8058;SDS011;4072;42.668;23.396;2023-07-08T15:10:54;4.10;;;3.70;;
8058;SDS011;4072;42.668;23.396;2023-07-08T15:13:25;4.20;;;3.78;;
8058;SDS011;4072;42.668;23.396;2023-07-08T15:15:57;3.47;;;2.97;;
8058;SDS011;4072;42.668;23.396;2023-07-08T15:18:27;3.88;;;3.47;;
8058;SDS011;4072;42.668;23.396;2023-07-08T15:20:56;3.42;;;3.13;;
8058;SDS011;4072;42.668;23.396;2023-07-08T15:23:24;5.65;;;3.38;;